sensor_id;sensor_type;location;lat;lon;timestamp;P1;durP1;ratioP1;P2;durP2;ratioP2
82328;SDS011;72321;56.908;60.608;2023-09-30T00:00:54;47.42;;;23.17;;
82328;SDS011;72321;56.908;60.608;2023-09-30T00:03:19;51.83;;;23.55;;
82328;SDS011;72321;56.908;60.608;2023-09-30T00:05:45;59.88;;;25.50;;
82328;SDS011;72321;56.908;60.608;2023-09-30T00:08:10;71.93;;;24.98;;
82328;SDS011;72321;56.908;60.608;2023-09-30T00:10:36;50.85;;;23.48;;
82328;SDS011;72321;56.908;60.608;2023-09-30T00:13:01;70.03;;;24.77;;
82328;SDS011;72321;56.908;60.608;2023-09-30T00:15:27;55.78;;;25.23;;
82328;SDS011;72321;56.908;60.608;2023-09-30T00:17:52;63.05;;;25.88;;
82328;SDS011;72321;56.908;60.608;2023-09-30T00:20:18;58.78;;;23.27;;
82328;SDS011;72321;56.908;60.608;2023-09-30T00:22:43;54.45;;;23.80;;
82328;SDS011;72321;56.908;60.608;2023-09-30T00:25:08;67.63;;;26.90;;
82328;SDS011;72321;56.908;60.608;2023-09-30T00:30:00;54.60;;;24.30;;
82328;SDS011;72321;56.908;60.608;2023-09-30T00:32:25;63.85;;;22.98;;
82328;SDS011;72321;56.908;60.608;2023-09-30T00:34:50;53.95;;;25.00;;
82328;SDS011;72321;56.908;60.608;2023-09-30T00:37:17;53.83;;;24.50;;
82328;SDS011;72321;56.908;60.608;2023-09-30T00:39:43;65.07;;;27.40;;
82328;SDS011;72321;56.908;60.608;2023-09-30T00:42:09;62.88;;;26.08;;
82328;SDS011;72321;56.908;60.608;2023-09-30T00:44:34;57.90;;;27.33;;
82328;SDS011;72321;56.908;60.608;2023-09-30T00:47:00;48.90;;;23.38;;
82328;SDS011;72321;56.908;60.608;2023-09-30T00:49:25;65.55;;;25.85;;
82328;SDS011;72321;56.908;60.608;2023-09-30T00:51:51;52.58;;;22.55;;
82328;SDS011;72321;56.908;60.608;2023-09-30T00:54:17;63.88;;;23.88;;
82328;SDS011;72321;56.908;60.608;2023-09-30T00:56:45;59.55;;;25.30;;
82328;SDS011;72321;56.908;60.608;2023-09-30T00:59:14;65.63;;;25.38;;
82328;SDS011;72321;56.908;60.608;2023-09-30T01:01:40;54.78;;;23.10;;
82328;SDS011;72321;56.908;60.608;2023-09-30T01:06:31;59.50;;;22.13;;
82328;SDS011;72321;56.908;60.608;2023-09-30T01:08:56;52.60;;;23.05;;
82328;SDS011;72321;56.908;60.608;2023-09-30T01:11:22;48.60;;;23.65;;
82328;SDS011;72321;56.908;60.608;2023-09-30T01:13:48;52.83;;;25.67;;
82328;SDS011;72321;56.908;60.608;2023-09-30T01:18:40;52.70;;;21.45;;
82328;SDS011;72321;56.908;60.608;2023-09-30T01:21:07;58.75;;;23.50;;
82328;SDS011;72321;56.908;60.608;2023-09-30T01:23:33;64.38;;;23.88;;
82328;SDS011;72321;56.908;60.608;2023-09-30T01:26:02;58.92;;;23.00;;
82328;SDS011;72321;56.908;60.608;2023-09-30T01:28:29;50.72;;;21.08;;
82328;SDS011;72321;56.908;60.608;2023-09-30T01:30:54;55.30;;;22.48;;
82328;SDS011;72321;56.908;60.608;2023-09-30T01:33:20;39.80;;;20.00;;
82328;SDS011;72321;56.908;60.608;2023-09-30T01:35:45;48.13;;;20.05;;
82328;SDS011;72321;56.908;60.608;2023-09-30T01:38:10;53.22;;;20.27;;
82328;SDS011;72321;56.908;60.608;2023-09-30T01:40:36;46.03;;;22.55;;
82328;SDS011;72321;56.908;60.608;2023-09-30T01:43:03;48.25;;;19.17;;
82328;SDS011;72321;56.908;60.608;2023-09-30T01:45:28;48.60;;;21.67;;
82328;SDS011;72321;56.908;60.608;2023-09-30T01:47:53;45.05;;;20.92;;
82328;SDS011;72321;56.908;60.608;2023-09-30T01:50:19;48.10;;;19.40;;
82328;SDS011;72321;56.908;60.608;2023-09-30T01:52:45;45.42;;;21.10;;
82328;SDS011;72321;56.908;60.608;2023-09-30T01:55:10;37.75;;;19.52;;
82328;SDS011;72321;56.908;60.608;2023-09-30T01:57:36;44.78;;;19.67;;
82328;SDS011;72321;56.908;60.608;2023-09-30T02:00:02;41.15;;;19.95;;
82328;SDS011;72321;56.908;60.608;2023-09-30T02:02:27;51.03;;;20.15;;
82328;SDS011;72321;56.908;60.608;2023-09-30T02:04:53;47.70;;;20.45;;
82328;SDS011;72321;56.908;60.608;2023-09-30T02:07:18;54.33;;;19.80;;
82328;SDS011;72321;56.908;60.608;2023-09-30T02:09:44;52.85;;;20.90;;
82328;SDS011;72321;56.908;60.608;2023-09-30T02:12:10;43.08;;;20.35;;
82328;SDS011;72321;56.908;60.608;2023-09-30T02:14:35;43.20;;;18.15;;
82328;SDS011;72321;56.908;60.608;2023-09-30T02:17:00;45.53;;;18.70;;
82328;SDS011;72321;56.908;60.608;2023-09-30T02:19:26;48.57;;;17.80;;
82328;SDS011;72321;56.908;60.608;2023-09-30T02:21:52;52.83;;;20.92;;
82328;SDS011;72321;56.908;60.608;2023-09-30T02:24:18;48.58;;;20.15;;
82328;SDS011;72321;56.908;60.608;2023-09-30T02:26:43;54.38;;;19.80;;
82328;SDS011;72321;56.908;60.608;2023-09-30T02:29:09;58.33;;;20.98;;
82328;SDS011;72321;56.908;60.608;2023-09-30T02:31:34;48.80;;;19.00;;
82328;SDS011;72321;56.908;60.608;2023-09-30T02:34:00;50.45;;;22.05;;
82328;SDS011;72321;56.908;60.608;2023-09-30T02:36:28;48.22;;;20.85;;
82328;SDS011;72321;56.908;60.608;2023-09-30T02:38:54;44.55;;;16.70;;
82328;SDS011;72321;56.908;60.608;2023-09-30T02:41:19;48.95;;;19.48;;
82328;SDS011;72321;56.908;60.608;2023-09-30T02:43:44;37.20;;;18.83;;
82328;SDS011;72321;56.908;60.608;2023-09-30T02:46:11;44.92;;;19.58;;
82328;SDS011;72321;56.908;60.608;2023-09-30T02:48:37;45.50;;;18.15;;
82328;SDS011;72321;56.908;60.608;2023-09-30T02:51:03;40.83;;;16.73;;
82328;SDS011;72321;56.908;60.608;2023-09-30T02:53:28;44.47;;;18.45;;
82328;SDS011;72321;56.908;60.608;2023-09-30T02:55:53;46.63;;;18.52;;
82328;SDS011;72321;56.908;60.608;2023-09-30T02:58:22;42.97;;;19.05;;
82328;SDS011;72321;56.908;60.608;2023-09-30T03:00:48;39.47;;;16.75;;
82328;SDS011;72321;56.908;60.608;2023-09-30T03:03:14;47.80;;;19.83;;
82328;SDS011;72321;56.908;60.608;2023-09-30T03:05:39;40.53;;;18.15;;
82328;SDS011;72321;56.908;60.608;2023-09-30T03:08:05;58.58;;;21.48;;
82328;SDS011;72321;56.908;60.608;2023-09-30T03:10:30;51.88;;;19.77;;
82328;SDS011;72321;56.908;60.608;2023-09-30T03:12:56;61.78;;;22.73;;
82328;SDS011;72321;56.908;60.608;2023-09-30T03:15:26;52.67;;;22.50;;
82328;SDS011;72321;56.908;60.608;2023-09-30T03:17:52;63.42;;;24.90;;
82328;SDS011;72321;56.908;60.608;2023-09-30T03:20:18;71.65;;;24.35;;
82328;SDS011;72321;56.908;60.608;2023-09-30T03:22:46;72.43;;;27.95;;
82328;SDS011;72321;56.908;60.608;2023-09-30T03:25:15;76.45;;;28.02;;
82328;SDS011;72321;56.908;60.608;2023-09-30T03:27:42;76.63;;;27.40;;
82328;SDS011;72321;56.908;60.608;2023-09-30T03:30:08;78.65;;;29.40;;
82328;SDS011;72321;56.908;60.608;2023-09-30T03:32:34;77.70;;;26.98;;
82328;SDS011;72321;56.908;60.608;2023-09-30T03:35:06;85.00;;;30.08;;
82328;SDS011;72321;56.908;60.608;2023-09-30T03:37:32;74.07;;;29.55;;
82328;SDS011;72321;56.908;60.608;2023-09-30T03:39:58;85.22;;;30.63;;
82328;SDS011;72321;56.908;60.608;2023-09-30T03:42:23;83.05;;;32.80;;
82328;SDS011;72321;56.908;60.608;2023-09-30T03:44:49;98.72;;;35.92;;
82328;SDS011;72321;56.908;60.608;2023-09-30T03:47:15;101.80;;;36.95;;
82328;SDS011;72321;56.908;60.608;2023-09-30T03:49:41;93.30;;;36.85;;
82328;SDS011;72321;56.908;60.608;2023-09-30T03:54:33;117.93;;;39.10;;
82328;SDS011;72321;56.908;60.608;2023-09-30T03:56:59;113.63;;;40.70;;
82328;SDS011;72321;56.908;60.608;2023-09-30T03:59:25;112.60;;;38.55;;
82328;SDS011;72321;56.908;60.608;2023-09-30T04:01:51;125.35;;;44.92;;
82328;SDS011;72321;56.908;60.608;2023-09-30T04:04:18;130.13;;;44.83;;
82328;SDS011;72321;56.908;60.608;2023-09-30T04:06:44;154.77;;;49.42;;
82328;SDS011;72321;56.908;60.608;2023-09-30T04:09:11;136.95;;;43.97;;
82328;SDS011;72321;56.908;60.608;2023-09-30T04:11:37;134.75;;;47.38;;
82328;SDS011;72321;56.908;60.608;2023-09-30T04:14:03;132.55;;;47.80;;
82328;SDS011;72321;56.908;60.608;2023-09-30T04:16:28;149.73;;;45.63;;
82328;SDS011;72321;56.908;60.608;2023-09-30T04:18:55;135.60;;;43.40;;
82328;SDS011;72321;56.908;60.608;2023-09-30T04:21:20;111.47;;;38.35;;
82328;SDS011;72321;56.908;60.608;2023-09-30T04:23:46;78.97;;;31.48;;
82328;SDS011;72321;56.908;60.608;2023-09-30T04:26:11;39.33;;;14.43;;
82328;SDS011;72321;56.908;60.608;2023-09-30T04:28:37;19.25;;;8.30;;
82328;SDS011;72321;56.908;60.608;2023-09-30T04:31:02;17.67;;;7.90;;
82328;SDS011;72321;56.908;60.608;2023-09-30T04:33:28;14.60;;;5.50;;
82328;SDS011;72321;56.908;60.608;2023-09-30T04:35:53;10.45;;;3.10;;
82328;SDS011;72321;56.908;60.608;2023-09-30T04:38:19;7.53;;;3.67;;
82328;SDS011;72321;56.908;60.608;2023-09-30T04:40:44;5.70;;;2.53;;
82328;SDS011;72321;56.908;60.608;2023-09-30T04:43:13;4.65;;;1.98;;
82328;SDS011;72321;56.908;60.608;2023-09-30T04:45:39;6.20;;;2.83;;
82328;SDS011;72321;56.908;60.608;2023-09-30T04:48:05;4.68;;;3.00;;
82328;SDS011;72321;56.908;60.608;2023-09-30T04:50:30;6.53;;;2.58;;
82328;SDS011;72321;56.908;60.608;2023-09-30T04:52:56;5.20;;;2.17;;
82328;SDS011;72321;56.908;60.608;2023-09-30T04:55:22;4.40;;;1.73;;
82328;SDS011;72321;56.908;60.608;2023-09-30T04:57:48;8.63;;;2.50;;
82328;SDS011;72321;56.908;60.608;2023-09-30T05:00:14;8.55;;;2.20;;
82328;SDS011;72321;56.908;60.608;2023-09-30T05:02:40;7.78;;;2.08;;
82328;SDS011;72321;56.908;60.608;2023-09-30T05:05:06;5.30;;;2.33;;
82328;SDS011;72321;56.908;60.608;2023-09-30T05:07:31;5.43;;;2.38;;
82328;SDS011;72321;56.908;60.608;2023-09-30T05:09:57;8.88;;;2.47;;
82328;SDS011;72321;56.908;60.608;2023-09-30T05:12:22;7.03;;;2.63;;
82328;SDS011;72321;56.908;60.608;2023-09-30T05:14:48;22.63;;;2.95;;
82328;SDS011;72321;56.908;60.608;2023-09-30T05:17:13;11.48;;;2.55;;
82328;SDS011;72321;56.908;60.608;2023-09-30T05:19:39;14.70;;;3.38;;
82328;SDS011;72321;56.908;60.608;2023-09-30T05:22:04;14.95;;;3.15;;
82328;SDS011;72321;56.908;60.608;2023-09-30T05:24:30;8.57;;;2.78;;
82328;SDS011;72321;56.908;60.608;2023-09-30T05:26:55;8.57;;;3.40;;
82328;SDS011;72321;56.908;60.608;2023-09-30T05:29:21;9.07;;;3.28;;
82328;SDS011;72321;56.908;60.608;2023-09-30T05:31:47;14.90;;;3.05;;
82328;SDS011;72321;56.908;60.608;2023-09-30T05:34:12;10.15;;;3.85;;
82328;SDS011;72321;56.908;60.608;2023-09-30T05:36:38;18.17;;;5.65;;
82328;SDS011;72321;56.908;60.608;2023-09-30T05:39:03;11.13;;;4.60;;
82328;SDS011;72321;56.908;60.608;2023-09-30T05:41:30;13.60;;;3.88;;
82328;SDS011;72321;56.908;60.608;2023-09-30T05:43:55;21.88;;;4.43;;
82328;SDS011;72321;56.908;60.608;2023-09-30T05:46:20;12.50;;;4.10;;
82328;SDS011;72321;56.908;60.608;2023-09-30T05:48:46;19.42;;;4.03;;
82328;SDS011;72321;56.908;60.608;2023-09-30T05:51:12;11.75;;;4.00;;
82328;SDS011;72321;56.908;60.608;2023-09-30T05:53:40;17.83;;;5.20;;
82328;SDS011;72321;56.908;60.608;2023-09-30T05:56:06;11.43;;;5.72;;
82328;SDS011;72321;56.908;60.608;2023-09-30T05:58:32;12.88;;;5.22;;
82328;SDS011;72321;56.908;60.608;2023-09-30T06:00:57;14.40;;;4.78;;
82328;SDS011;72321;56.908;60.608;2023-09-30T06:03:22;14.43;;;4.93;;
82328;SDS011;72321;56.908;60.608;2023-09-30T06:05:48;14.20;;;5.20;;
82328;SDS011;72321;56.908;60.608;2023-09-30T06:08:13;20.30;;;6.05;;
82328;SDS011;72321;56.908;60.608;2023-09-30T06:10:40;19.17;;;6.47;;
82328;SDS011;72321;56.908;60.608;2023-09-30T06:13:08;18.90;;;4.40;;
82328;SDS011;72321;56.908;60.608;2023-09-30T06:15:34;13.77;;;4.90;;
82328;SDS011;72321;56.908;60.608;2023-09-30T06:18:01;15.02;;;5.15;;
82328;SDS011;72321;56.908;60.608;2023-09-30T06:20:29;13.07;;;4.32;;
82328;SDS011;72321;56.908;60.608;2023-09-30T06:22:55;18.45;;;5.20;;
82328;SDS011;72321;56.908;60.608;2023-09-30T06:25:21;21.13;;;6.32;;
82328;SDS011;72321;56.908;60.608;2023-09-30T06:27:49;18.83;;;5.15;;
82328;SDS011;72321;56.908;60.608;2023-09-30T06:30:15;20.65;;;5.80;;
82328;SDS011;72321;56.908;60.608;2023-09-30T06:32:41;17.15;;;4.53;;
82328;SDS011;72321;56.908;60.608;2023-09-30T06:35:07;13.50;;;5.20;;
82328;SDS011;72321;56.908;60.608;2023-09-30T06:37:35;15.30;;;4.63;;
82328;SDS011;72321;56.908;60.608;2023-09-30T06:40:00;24.52;;;6.85;;
82328;SDS011;72321;56.908;60.608;2023-09-30T06:42:29;13.45;;;4.82;;
82328;SDS011;72321;56.908;60.608;2023-09-30T06:44:54;16.20;;;5.57;;
82328;SDS011;72321;56.908;60.608;2023-09-30T06:47:19;20.17;;;6.05;;
82328;SDS011;72321;56.908;60.608;2023-09-30T06:49:46;14.35;;;5.53;;
82328;SDS011;72321;56.908;60.608;2023-09-30T06:52:11;15.55;;;5.55;;
82328;SDS011;72321;56.908;60.608;2023-09-30T06:54:37;11.75;;;5.13;;
82328;SDS011;72321;56.908;60.608;2023-09-30T06:57:02;11.48;;;5.63;;
82328;SDS011;72321;56.908;60.608;2023-09-30T06:59:27;13.27;;;4.82;;
82328;SDS011;72321;56.908;60.608;2023-09-30T07:01:53;12.18;;;4.22;;
82328;SDS011;72321;56.908;60.608;2023-09-30T07:04:19;11.80;;;4.40;;
82328;SDS011;72321;56.908;60.608;2023-09-30T07:06:46;13.05;;;4.85;;
82328;SDS011;72321;56.908;60.608;2023-09-30T07:09:12;15.30;;;5.93;;
82328;SDS011;72321;56.908;60.608;2023-09-30T07:11:37;11.40;;;5.20;;
82328;SDS011;72321;56.908;60.608;2023-09-30T07:14:03;7.43;;;4.32;;
82328;SDS011;72321;56.908;60.608;2023-09-30T07:16:28;11.70;;;5.22;;
82328;SDS011;72321;56.908;60.608;2023-09-30T07:18:53;9.17;;;4.73;;
82328;SDS011;72321;56.908;60.608;2023-09-30T07:21:20;11.18;;;4.60;;
82328;SDS011;72321;56.908;60.608;2023-09-30T07:23:46;8.35;;;4.45;;
82328;SDS011;72321;56.908;60.608;2023-09-30T07:26:13;10.50;;;3.80;;
82328;SDS011;72321;56.908;60.608;2023-09-30T07:31:04;7.63;;;2.67;;
82328;SDS011;72321;56.908;60.608;2023-09-30T07:33:30;8.00;;;4.30;;
82328;SDS011;72321;56.908;60.608;2023-09-30T07:35:56;6.57;;;3.63;;
82328;SDS011;72321;56.908;60.608;2023-09-30T07:38:22;7.50;;;3.60;;
82328;SDS011;72321;56.908;60.608;2023-09-30T07:40:48;9.20;;;4.38;;
82328;SDS011;72321;56.908;60.608;2023-09-30T07:43:14;9.43;;;4.32;;
82328;SDS011;72321;56.908;60.608;2023-09-30T07:45:39;9.77;;;5.70;;
82328;SDS011;72321;56.908;60.608;2023-09-30T07:48:06;18.25;;;7.72;;
82328;SDS011;72321;56.908;60.608;2023-09-30T07:50:34;11.10;;;4.18;;
82328;SDS011;72321;56.908;60.608;2023-09-30T07:52:59;6.70;;;3.50;;
82328;SDS011;72321;56.908;60.608;2023-09-30T07:55:25;11.05;;;6.13;;
82328;SDS011;72321;56.908;60.608;2023-09-30T07:57:51;10.45;;;4.63;;
82328;SDS011;72321;56.908;60.608;2023-09-30T08:00:17;10.23;;;4.97;;
82328;SDS011;72321;56.908;60.608;2023-09-30T08:02:42;13.77;;;4.63;;
82328;SDS011;72321;56.908;60.608;2023-09-30T08:05:08;7.95;;;4.05;;
82328;SDS011;72321;56.908;60.608;2023-09-30T08:07:34;9.80;;;4.20;;
82328;SDS011;72321;56.908;60.608;2023-09-30T08:09:59;13.65;;;6.93;;
82328;SDS011;72321;56.908;60.608;2023-09-30T08:12:25;9.63;;;5.18;;
82328;SDS011;72321;56.908;60.608;2023-09-30T08:14:50;12.82;;;5.43;;
82328;SDS011;72321;56.908;60.608;2023-09-30T08:17:16;12.68;;;5.15;;
82328;SDS011;72321;56.908;60.608;2023-09-30T08:19:42;12.65;;;4.55;;
82328;SDS011;72321;56.908;60.608;2023-09-30T08:22:08;13.48;;;6.30;;
82328;SDS011;72321;56.908;60.608;2023-09-30T08:24:34;16.15;;;6.88;;
82328;SDS011;72321;56.908;60.608;2023-09-30T08:27:00;12.32;;;6.15;;
82328;SDS011;72321;56.908;60.608;2023-09-30T08:29:26;20.42;;;8.65;;
82328;SDS011;72321;56.908;60.608;2023-09-30T08:31:51;14.70;;;7.30;;
82328;SDS011;72321;56.908;60.608;2023-09-30T08:34:16;13.43;;;7.28;;
82328;SDS011;72321;56.908;60.608;2023-09-30T08:36:42;13.43;;;7.10;;
82328;SDS011;72321;56.908;60.608;2023-09-30T08:39:08;10.38;;;5.88;;
82328;SDS011;72321;56.908;60.608;2023-09-30T08:41:35;16.73;;;7.88;;
82328;SDS011;72321;56.908;60.608;2023-09-30T08:44:01;34.05;;;13.07;;
82328;SDS011;72321;56.908;60.608;2023-09-30T08:46:31;21.13;;;6.65;;
82328;SDS011;72321;56.908;60.608;2023-09-30T08:48:58;29.10;;;12.90;;
82328;SDS011;72321;56.908;60.608;2023-09-30T08:51:24;14.23;;;5.82;;
82328;SDS011;72321;56.908;60.608;2023-09-30T08:53:50;12.73;;;7.30;;
82328;SDS011;72321;56.908;60.608;2023-09-30T08:56:17;16.20;;;5.47;;
82328;SDS011;72321;56.908;60.608;2023-09-30T08:58:44;17.35;;;7.47;;
82328;SDS011;72321;56.908;60.608;2023-09-30T09:01:10;15.70;;;6.70;;
82328;SDS011;72321;56.908;60.608;2023-09-30T09:03:36;13.13;;;5.57;;
82328;SDS011;72321;56.908;60.608;2023-09-30T09:06:02;13.90;;;7.10;;
82328;SDS011;72321;56.908;60.608;2023-09-30T09:08:27;11.48;;;5.90;;
82328;SDS011;72321;56.908;60.608;2023-09-30T09:10:53;10.65;;;4.85;;
82328;SDS011;72321;56.908;60.608;2023-09-30T09:13:20;8.85;;;4.60;;
82328;SDS011;72321;56.908;60.608;2023-09-30T09:15:45;12.32;;;4.70;;
82328;SDS011;72321;56.908;60.608;2023-09-30T09:18:11;16.67;;;4.90;;
82328;SDS011;72321;56.908;60.608;2023-09-30T09:20:39;11.13;;;5.18;;
82328;SDS011;72321;56.908;60.608;2023-09-30T09:23:05;10.43;;;5.15;;
82328;SDS011;72321;56.908;60.608;2023-09-30T09:25:33;16.17;;;5.97;;
82328;SDS011;72321;56.908;60.608;2023-09-30T09:28:03;10.30;;;4.60;;
82328;SDS011;72321;56.908;60.608;2023-09-30T09:30:28;15.45;;;5.38;;
82328;SDS011;72321;56.908;60.608;2023-09-30T09:33:04;10.35;;;4.60;;
82328;SDS011;72321;56.908;60.608;2023-09-30T09:35:33;16.30;;;5.68;;
82328;SDS011;72321;56.908;60.608;2023-09-30T09:38:03;31.10;;;14.80;;
82328;SDS011;72321;56.908;60.608;2023-09-30T09:40:32;19.70;;;8.32;;
82328;SDS011;72321;56.908;60.608;2023-09-30T09:42:58;12.38;;;4.65;;
82328;SDS011;72321;56.908;60.608;2023-09-30T09:45:25;9.27;;;4.82;;
82328;SDS011;72321;56.908;60.608;2023-09-30T09:47:51;12.48;;;4.80;;
82328;SDS011;72321;56.908;60.608;2023-09-30T09:50:17;8.88;;;4.78;;
82328;SDS011;72321;56.908;60.608;2023-09-30T09:52:43;7.10;;;4.43;;
82328;SDS011;72321;56.908;60.608;2023-09-30T09:57:35;15.37;;;5.33;;
82328;SDS011;72321;56.908;60.608;2023-09-30T10:00:01;8.80;;;4.30;;
82328;SDS011;72321;56.908;60.608;2023-09-30T10:02:30;10.27;;;4.78;;
82328;SDS011;72321;56.908;60.608;2023-09-30T10:04:55;11.30;;;4.82;;
82328;SDS011;72321;56.908;60.608;2023-09-30T10:07:24;7.18;;;4.10;;
82328;SDS011;72321;56.908;60.608;2023-09-30T10:09:50;10.27;;;4.50;;
82328;SDS011;72321;56.908;60.608;2023-09-30T10:12:17;9.50;;;4.93;;
82328;SDS011;72321;56.908;60.608;2023-09-30T10:14:43;12.32;;;5.13;;
82328;SDS011;72321;56.908;60.608;2023-09-30T10:17:09;15.93;;;4.97;;
82328;SDS011;72321;56.908;60.608;2023-09-30T10:19:35;12.20;;;6.47;;
82328;SDS011;72321;56.908;60.608;2023-09-30T10:24:45;25.50;;;13.13;;
82328;SDS011;72321;56.908;60.608;2023-09-30T10:29:56;8.38;;;3.25;;
82328;SDS011;72321;56.908;60.608;2023-09-30T10:32:22;9.68;;;3.38;;
82328;SDS011;72321;56.908;60.608;2023-09-30T10:34:48;6.88;;;2.97;;
82328;SDS011;72321;56.908;60.608;2023-09-30T10:37:20;9.30;;;3.38;;
82328;SDS011;72321;56.908;60.608;2023-09-30T10:39:58;8.68;;;3.47;;
82328;SDS011;72321;56.908;60.608;2023-09-30T10:45:07;9.32;;;3.33;;
82328;SDS011;72321;56.908;60.608;2023-09-30T10:47:36;11.57;;;4.28;;
82328;SDS011;72321;56.908;60.608;2023-09-30T10:50:02;10.60;;;3.88;;
82328;SDS011;72321;56.908;60.608;2023-09-30T10:52:29;7.10;;;4.03;;
82328;SDS011;72321;56.908;60.608;2023-09-30T10:54:56;9.02;;;3.35;;
82328;SDS011;72321;56.908;60.608;2023-09-30T10:57:27;13.25;;;4.13;;
82328;SDS011;72321;56.908;60.608;2023-09-30T11:00:08;7.35;;;3.72;;
82328;SDS011;72321;56.908;60.608;2023-09-30T11:02:33;6.07;;;3.85;;
82328;SDS011;72321;56.908;60.608;2023-09-30T11:05:08;7.38;;;3.30;;
82328;SDS011;72321;56.908;60.608;2023-09-30T11:07:33;6.47;;;3.47;;
82328;SDS011;72321;56.908;60.608;2023-09-30T11:10:00;9.32;;;3.33;;
82328;SDS011;72321;56.908;60.608;2023-09-30T11:12:26;9.70;;;3.95;;
82328;SDS011;72321;56.908;60.608;2023-09-30T11:14:58;7.18;;;4.03;;
82328;SDS011;72321;56.908;60.608;2023-09-30T11:17:23;6.88;;;3.30;;
82328;SDS011;72321;56.908;60.608;2023-09-30T11:19:49;6.65;;;2.90;;
82328;SDS011;72321;56.908;60.608;2023-09-30T11:22:15;7.82;;;3.08;;
82328;SDS011;72321;56.908;60.608;2023-09-30T11:24:40;9.57;;;2.90;;
82328;SDS011;72321;56.908;60.608;2023-09-30T11:27:06;5.95;;;2.72;;
82328;SDS011;72321;56.908;60.608;2023-09-30T11:29:32;3.47;;;2.00;;
82328;SDS011;72321;56.908;60.608;2023-09-30T11:31:57;5.05;;;2.38;;
82328;SDS011;72321;56.908;60.608;2023-09-30T11:34:36;14.60;;;5.40;;
82328;SDS011;72321;56.908;60.608;2023-09-30T11:37:03;9.60;;;2.60;;
82328;SDS011;72321;56.908;60.608;2023-09-30T11:39:28;11.52;;;5.68;;
82328;SDS011;72321;56.908;60.608;2023-09-30T11:41:54;17.73;;;3.97;;
82328;SDS011;72321;56.908;60.608;2023-09-30T11:44:21;11.77;;;4.30;;
82328;SDS011;72321;56.908;60.608;2023-09-30T11:46:47;10.23;;;5.90;;
82328;SDS011;72321;56.908;60.608;2023-09-30T11:49:23;11.48;;;4.65;;
82328;SDS011;72321;56.908;60.608;2023-09-30T11:51:48;5.10;;;2.47;;
82328;SDS011;72321;56.908;60.608;2023-09-30T11:54:14;8.10;;;3.28;;
82328;SDS011;72321;56.908;60.608;2023-09-30T11:56:39;5.63;;;3.65;;
82328;SDS011;72321;56.908;60.608;2023-09-30T11:59:05;15.85;;;8.82;;
82328;SDS011;72321;56.908;60.608;2023-09-30T12:01:30;10.30;;;6.03;;
82328;SDS011;72321;56.908;60.608;2023-09-30T12:03:57;7.57;;;5.28;;
82328;SDS011;72321;56.908;60.608;2023-09-30T12:06:22;10.15;;;4.97;;
82328;SDS011;72321;56.908;60.608;2023-09-30T12:08:48;6.32;;;4.22;;
82328;SDS011;72321;56.908;60.608;2023-09-30T12:11:13;7.88;;;4.05;;
82328;SDS011;72321;56.908;60.608;2023-09-30T12:13:41;9.43;;;4.65;;
82328;SDS011;72321;56.908;60.608;2023-09-30T12:16:06;9.93;;;4.57;;
82328;SDS011;72321;56.908;60.608;2023-09-30T12:18:32;19.25;;;7.90;;
82328;SDS011;72321;56.908;60.608;2023-09-30T12:20:57;8.95;;;4.47;;
82328;SDS011;72321;56.908;60.608;2023-09-30T12:23:24;6.57;;;3.22;;
82328;SDS011;72321;56.908;60.608;2023-09-30T12:25:49;5.40;;;2.67;;
82328;SDS011;72321;56.908;60.608;2023-09-30T12:28:15;4.95;;;2.47;;
82328;SDS011;72321;56.908;60.608;2023-09-30T12:30:42;8.10;;;3.10;;
82328;SDS011;72321;56.908;60.608;2023-09-30T12:33:08;6.32;;;3.00;;
82328;SDS011;72321;56.908;60.608;2023-09-30T12:35:33;6.15;;;3.45;;
82328;SDS011;72321;56.908;60.608;2023-09-30T12:37:59;7.22;;;3.03;;
82328;SDS011;72321;56.908;60.608;2023-09-30T12:40:24;7.38;;;3.55;;
82328;SDS011;72321;56.908;60.608;2023-09-30T12:42:50;10.88;;;5.47;;
82328;SDS011;72321;56.908;60.608;2023-09-30T12:45:15;8.32;;;5.72;;
82328;SDS011;72321;56.908;60.608;2023-09-30T12:47:42;14.48;;;6.18;;
82328;SDS011;72321;56.908;60.608;2023-09-30T12:50:08;13.32;;;9.10;;
82328;SDS011;72321;56.908;60.608;2023-09-30T12:52:36;15.52;;;8.02;;
82328;SDS011;72321;56.908;60.608;2023-09-30T12:55:03;6.65;;;3.92;;
82328;SDS011;72321;56.908;60.608;2023-09-30T12:59:54;16.50;;;6.20;;
82328;SDS011;72321;56.908;60.608;2023-09-30T13:02:20;15.32;;;6.53;;
82328;SDS011;72321;56.908;60.608;2023-09-30T13:04:46;8.88;;;3.85;;
82328;SDS011;72321;56.908;60.608;2023-09-30T13:07:11;10.90;;;5.18;;
82328;SDS011;72321;56.908;60.608;2023-09-30T13:09:40;10.25;;;4.78;;
82328;SDS011;72321;56.908;60.608;2023-09-30T13:12:06;6.53;;;3.22;;
82328;SDS011;72321;56.908;60.608;2023-09-30T13:14:31;6.03;;;3.95;;
82328;SDS011;72321;56.908;60.608;2023-09-30T13:16:57;5.47;;;3.53;;
82328;SDS011;72321;56.908;60.608;2023-09-30T13:19:22;16.38;;;5.70;;
82328;SDS011;72321;56.908;60.608;2023-09-30T13:21:51;9.35;;;4.82;;
82328;SDS011;72321;56.908;60.608;2023-09-30T13:24:20;13.60;;;4.97;;
82328;SDS011;72321;56.908;60.608;2023-09-30T13:26:46;9.68;;;5.00;;
82328;SDS011;72321;56.908;60.608;2023-09-30T13:29:11;11.30;;;5.82;;
82328;SDS011;72321;56.908;60.608;2023-09-30T13:31:38;15.48;;;7.30;;
82328;SDS011;72321;56.908;60.608;2023-09-30T13:34:04;15.30;;;8.43;;
82328;SDS011;72321;56.908;60.608;2023-09-30T13:36:29;11.05;;;6.35;;
82328;SDS011;72321;56.908;60.608;2023-09-30T13:38:55;7.40;;;3.95;;
82328;SDS011;72321;56.908;60.608;2023-09-30T13:41:21;9.80;;;4.40;;
82328;SDS011;72321;56.908;60.608;2023-09-30T13:43:46;8.45;;;4.53;;
82328;SDS011;72321;56.908;60.608;2023-09-30T13:46:11;9.27;;;4.38;;
82328;SDS011;72321;56.908;60.608;2023-09-30T13:48:37;9.25;;;4.22;;
82328;SDS011;72321;56.908;60.608;2023-09-30T13:51:06;8.93;;;4.38;;
82328;SDS011;72321;56.908;60.608;2023-09-30T13:53:31;7.90;;;3.25;;
82328;SDS011;72321;56.908;60.608;2023-09-30T13:55:57;10.45;;;4.30;;
82328;SDS011;72321;56.908;60.608;2023-09-30T13:58:22;7.95;;;4.57;;
82328;SDS011;72321;56.908;60.608;2023-09-30T14:00:48;6.20;;;3.47;;
82328;SDS011;72321;56.908;60.608;2023-09-30T14:03:13;8.13;;;4.53;;
82328;SDS011;72321;56.908;60.608;2023-09-30T14:05:39;9.13;;;4.53;;
82328;SDS011;72321;56.908;60.608;2023-09-30T14:08:04;9.00;;;4.28;;
82328;SDS011;72321;56.908;60.608;2023-09-30T14:10:32;8.43;;;3.75;;
82328;SDS011;72321;56.908;60.608;2023-09-30T14:12:58;14.98;;;4.28;;
82328;SDS011;72321;56.908;60.608;2023-09-30T14:15:23;8.95;;;4.32;;
82328;SDS011;72321;56.908;60.608;2023-09-30T14:17:53;10.13;;;4.38;;
82328;SDS011;72321;56.908;60.608;2023-09-30T14:20:21;8.38;;;4.22;;
82328;SDS011;72321;56.908;60.608;2023-09-30T14:25:12;9.27;;;4.95;;
82328;SDS011;72321;56.908;60.608;2023-09-30T14:27:38;10.23;;;5.72;;
82328;SDS011;72321;56.908;60.608;2023-09-30T14:30:03;11.07;;;5.13;;
82328;SDS011;72321;56.908;60.608;2023-09-30T14:32:29;8.70;;;4.93;;
82328;SDS011;72321;56.908;60.608;2023-09-30T14:34:55;10.38;;;5.78;;
82328;SDS011;72321;56.908;60.608;2023-09-30T14:39:46;7.40;;;4.43;;
82328;SDS011;72321;56.908;60.608;2023-09-30T14:42:12;8.88;;;4.82;;
82328;SDS011;72321;56.908;60.608;2023-09-30T14:44:37;10.85;;;5.40;;